04:17
Airports
Links
Donate
Help keep this website running!
PayPal
Bitcoin
METAR
SKRG 240400Z VRB02KT 5000 VCSH FEW004 SCT010 BKN070 12/12 A3032
Current Weather Conditions at SKRG
MVFR 04:00:00 24-02-18
Altimeter:30.32 hg
Temp:12.0°c 54°f
Dew point:12.0°c 54°f
Wind:2 knots, 2.3 mph, 1 m/s,
Variable direction
Visibility:3.11 statute miles
7000(BKN) Broken
1000(SCT) Scattered
400(FEW) A few
Past METAR reports
MVFR 03:00:00 24-02-18
Altimeter:30.32 hg
Temp:13.0°c 55°f
Dew point:13.0°c 55°f
Wind:2 knots, 2.3 mph, 1 m/s,
Variable direction
Visibility:3.11 statute miles
7000(BKN) Broken
1000(SCT) Scattered
400(FEW) A few
SKRG 240300Z VRB02KT 5000 VCSH FEW004 SCT010 BKN070 13/13 A3032 REDZ
IFR 02:00:00 24-02-18
Altimeter:30.30 hg
Temp:13.0°c 55°f
Dew point:13.0°c 55°f
Wind:4 knots, 4.6 mph, 2 m/s, from 30°
Visibility:3.11 statute miles
7000(SCT) Scattered
800(BKN) Broken
SKRG 240200Z 03004KT 5000 -DZ BKN008 SCT070 13/13 A3030
IFR 01:00:00 24-02-18
Altimeter:30.29 hg
Temp:13.0°c 55°f
Dew point:13.0°c 55°f
Wind:5 knots, 5.8 mph, 3 m/s, from 10°
Visibility:3.11 statute miles
7000(SCT) Scattered
800(BKN) Broken
SKRG 240100Z 01005KT 5000 DZ BKN008 SCT070 13/13 A3029
MVFR 00:00:00 24-02-18
Altimeter:30.28 hg
Temp:14.0°c 57°f
Dew point:14.0°c 57°f
Wind:2 knots, 2.3 mph, 1 m/s,
Variable direction
Visibility:5.59 statute miles
7000(SCT) Scattered
1000(BKN) Broken
SKRG 240000Z VRB02KT 9000 -DZ BKN010 SCT070 14/14 A3028
MVFR 23:00:00 23-02-18
Altimeter:30.27 hg
Temp:14.0°c 57°f
Dew point:13.0°c 55°f
Wind:3 knots, 3.5 mph, 2 m/s, from 30°
Visibility:3.73 statute miles
1200(OVC) Overcast
SKRG 232300Z 03003KT 6000 VCSH OVC012 14/13 A3027 RMK VCSH/N
TAF
TAF COR SKRG 232300Z 2400/2424 VRB02KT 9999 SCT012 BKN070 TEMPO 2400/2405 4000 DZRA BCFG BKN010 TEMPO 2407/2412 3000 BR SCT010 PROB40 2410/2413 0500 FG VV/// TX22/2419Z TN12/2411Z
Forecast at SKRG
00:00 24-02-18 to 00:00 25-02-18
Wind:2 Knots from 360°
Visibility:6.21 statute miles
1200SCT Scattered
7000BKN Broken
TEMPO 00:00 24-02-18 to 05:00 24-02-18
DZ RA BCFG
Visibility:2.49 statute miles
1000BKN Broken
TEMPO 07:00 24-02-18 to 12:00 24-02-18
BR
Visibility:1.86 statute miles
1000SCT Scattered
PROB 10:00 24-02-18 to 13:00 24-02-18
40% FG
Visibility:0.31 statute miles